Bennettsville, SC (29512)

2:14 PM EDT on July 28, 2016 (GMT -0400)
bennettsville | | Change Station
Active Advisory: Heat Advisory

Elev 203 ft 34.62 °N, 79.67 °W | Updated 31 seconds ago

Clear
Clear
101.1 °F
Feels Like 114 °F
N
1.1
Wind Variable Wind from West

Today
High -- | Low -- °F
--% Chance of Precip.
Yesterday
High -- | Low -- °F
Precip. -- in
Pressure 29.92 in
Visibility 10.0 miles
Clouds Clear
Heat Index 114 °F
Dew Point 74 °F
Humidity 43%
Rainfall 0.00 in
Snow Depth Not available.
6:26 AM 8:23 PM
Waning Crescent, 30% visible
METAR KBBP 281755Z AUTO 23012KT 10SM CLR 36/22 A2992 RMK AO2
Pressure 29.92 in
Visibility 10.0 miles
Clouds Clear
Heat Index 114 °F
Dew Point 74 °F
Humidity 43%
Rainfall 0.00 in
Snow Depth Not available.
6:26 AM 8:23 PM
Waning Crescent, 30% visible
METAR KBBP 281755Z AUTO 23012KT 10SM CLR 36/22 A2992 RMK AO2

10-Day Weather Forecast

Almanac

Astronomy

Jul. 28, 2016 Rise Set
Actual Time
Civil Twilight
Nautical Twilight
Astronomical Twilight
Moon
Length of Visible Light
Length of Day
Tomorrow will be .
, % of the Moon is Illuminated

Today's Extremes

State Highs State Lows

Community

WunderPhotos

Upload Photos

1,928,174 photos uploaded!

WunderBlog® & News

Nearby

Air Quality

  Air Quality AQ Index Pollutant
Not available.

Snow Depth

Station Depth Elevation

Earthquake Activity

City Distance Mag. Time & Date
Minimum magnitude displayed is 2.5.

Coastal Water Temperatures

Place Temperature

Stations

Nearby Weather Stations

Station Location Temp. Windchill Dew Point Humidity Wind Precip. Elev Updated Type
                   

Watches & Warnings

Heat Advisory
Issued: 10:43 AM EDT Jul. 28, 2016 – National Weather Service

... Heat advisory remains in effect until 8 PM EDT this evening...

* heat index values... up to 109 due to temperatures in the mid
90s... and dewpoints in the lower 70s.

* Timing... the highest sustained heat index values will occur in
the mid to late afternoon hours.

* Impacts... the combination of hot temperatures and high
relative humidity will result with the increasing frequency of
heat related illnesses across the advised area. If you suspect
someone having a heat stroke... call 911 immediately.

Precautionary/preparedness actions...

A heat advisory means that a period of hot temperatures is
expected. The combination of hot temperatures and high humidity
will create a situation in which heat illnesses are possible. To
reduce the risk of heat illness during outdoor work the
occupational safety and health administration recommends
scheduling frequent rest breaks in shaded or air conditioned
environments.



5